Time;durP1;ratioP1;P1;durP2;ratioP2;P2;SDS_P1;SDS_P2;PMS_P1;PMS_P2;Temp;Humidity;BMP_temperature;BMP_pressure;BME280_temperature;BME280_humidity;BME280_pressure;Samples;Min_cycle;Max_cycle;Signal;HPM_P1;HPM_P2
2023/12/18 00:01:13;;;;;;;53.55;16.00;;;;;;;5.53;75.49;102286.53;10280240;28;20451;-63
2023/12/18 00:06:14;;;;;;;61.45;15.15;;;;;;;5.46;75.17;102281.66;10276862;28;20506;-63
2023/12/18 00:11:16;;;;;;;54.72;16.45;;;;;;;5.42;74.49;102275.66;10276481;28;20126;-63
2023/12/18 00:16:17;;;;;;;66.25;15.93;;;;;;;5.34;74.33;102276.13;10273963;28;20473;-64
2023/12/18 00:21:18;;;;;;;63.20;16.27;;;;;;;5.29;74.52;102288.03;10287370;28;20050;-62
2023/12/18 00:26:20;;;;;;;62.70;17.73;;;;;;;5.24;75.03;102274.97;10279072;28;20117;-63
2023/12/18 00:31:21;;;;;;;76.15;17.92;;;;;;;5.28;74.59;102267.66;10277474;28;20059;-64
2023/12/18 00:36:23;;;;;;;72.80;15.65;;;;;;;5.28;74.88;102263.16;10277668;28;20050;-63
2023/12/18 00:41:24;;;;;;;58.42;15.13;;;;;;;5.23;75.23;102261.75;10274395;28;20075;-63
2023/12/18 00:46:26;;;;;;;70.25;16.58;;;;;;;5.20;75.32;102260.13;10273303;28;20061;-63
2023/12/18 00:51:27;;;;;;;113.72;17.25;;;;;;;5.11;74.73;102258.84;10278858;28;20051;-63
2023/12/18 00:56:30;;;;;;;103.47;16.85;;;;;;;5.10;75.06;102258.97;10277305;28;20090;-63
2023/12/18 01:01:31;;;;;;;71.68;16.15;;;;;;;5.08;74.92;102252.88;10276240;28;20049;-64
2023/12/18 01:06:33;;;;;;;52.80;14.40;;;;;;;4.97;74.68;102256.19;10291171;28;20522;-63
2023/12/18 01:11:37;;;;;;;61.63;14.98;;;;;;;4.96;75.37;102254.47;10294347;28;20047;-63
2023/12/18 01:16:38;;;;;;;67.72;16.63;;;;;;;4.92;75.02;102253.81;10287238;28;20070;-63
2023/12/18 01:21:39;;;;;;;42.88;12.40;;;;;;;4.72;75.70;102259.44;10291933;28;20050;-63
2023/12/18 01:26:41;;;;;;;35.72;10.25;;;;;;;4.50;74.97;102255.41;10287096;28;20081;-63
2023/12/18 01:31:42;;;;;;;44.65;9.55;;;;;;;4.39;75.61;102247.16;10286654;28;20053;-63
2023/12/18 01:36:44;;;;;;;32.00;9.95;;;;;;;4.26;75.62;102264.78;10286298;28;20051;-63
2023/12/18 01:41:45;;;;;;;50.95;11.80;;;;;;;4.14;75.26;102267.19;10282168;28;20074;-63
2023/12/18 01:46:47;;;;;;;37.67;8.35;;;;;;;4.06;75.51;102268.56;10291314;28;20498;-62
2023/12/18 01:51:48;;;;;;;35.05;10.80;;;;;;;4.07;75.26;102271.16;10287195;28;20053;-62
2023/12/18 01:56:52;;;;;;;44.75;9.30;;;;;;;4.02;75.25;102251.91;10283037;28;20150;-63
2023/12/18 02:01:54;;;;;;;87.32;11.25;;;;;;;3.88;75.74;102273.13;10285891;28;20418;-63
2023/12/18 02:07:00;;;;;;;43.50;9.25;;;;;;;3.91;75.96;102281.81;10286629;28;20060;-62
2023/12/18 02:12:03;;;;;;;44.53;9.68;;;;;;;4.01;75.54;102271.50;10292163;28;20057;-62
2023/12/18 02:17:05;;;;;;;36.08;9.55;;;;;;;3.96;75.74;102249.59;10291897;28;20053;-62
2023/12/18 02:22:06;;;;;;;36.90;10.02;;;;;;;4.07;75.03;102244.56;10275071;28;20047;-62
2023/12/18 02:27:08;;;;;;;50.63;11.27;;;;;;;4.02;75.52;102251.91;10312121;28;20037;-63
2023/12/18 02:32:09;;;;;;;46.38;10.93;;;;;;;4.06;75.45;102241.97;10326301;28;20057;-63
2023/12/18 02:37:10;;;;;;;39.38;8.70;;;;;;;4.13;75.14;102238.88;10318477;28;20046;-63
2023/12/18 02:42:12;;;;;;;46.97;10.13;;;;;;;4.11;75.58;102243.44;10323015;28;20526;-63
2023/12/18 02:47:13;;;;;;;41.58;10.60;;;;;;;4.06;75.41;102236.66;10322672;28;20043;-63
2023/12/18 02:52:15;;;;;;;43.75;9.90;;;;;;;3.94;76.14;102228.41;10310794;28;20170;-62
2023/12/18 02:57:16;;;;;;;67.78;11.65;;;;;;;3.93;75.76;102236.47;10309334;28;20062;-62
2023/12/18 03:02:18;;;;;;;45.42;9.40;;;;;;;3.93;76.21;102229.38;10311855;28;20127;-62
2023/12/18 03:07:19;;;;;;;49.45;10.57;;;;;;;3.88;76.27;102231.41;10313064;28;20097;-63
2023/12/18 03:12:21;;;;;;;41.80;11.38;;;;;;;3.98;76.43;102219.31;10313950;28;20045;-62
2023/12/18 03:17:22;;;;;;;50.85;10.65;;;;;;;3.98;75.92;102215.78;10309658;28;20062;-62
2023/12/18 03:22:24;;;;;;;40.28;8.60;;;;;;;3.90;76.46;102236.66;10296713;28;20050;-63
2023/12/18 03:27:25;;;;;;;51.25;11.13;;;;;;;3.97;76.43;102233.56;10287883;28;20035;-62
2023/12/18 03:32:26;;;;;;;64.10;11.25;;;;;;;4.11;75.89;102231.94;10303776;28;20035;-63
2023/12/18 03:37:28;;;;;;;44.05;10.43;;;;;;;4.09;76.39;102232.00;10292957;28;20119;-63
2023/12/18 03:42:29;;;;;;;52.30;10.23;;;;;;;4.09;76.39;102236.50;10282280;28;20039;-64
2023/12/18 03:47:31;;;;;;;60.00;10.40;;;;;;;4.09;75.79;102225.84;10278660;28;20057;-63
2023/12/18 03:52:32;;;;;;;74.43;12.18;;;;;;;4.03;76.30;102216.41;10281493;28;20074;-63
2023/12/18 03:57:34;;;;;;;80.22;10.70;;;;;;;4.00;76.33;102226.34;10276467;28;20146;-65
2023/12/18 04:02:35;;;;;;;47.40;9.88;;;;;;;4.08;75.86;102213.47;10288281;28;20047;-63
2023/12/18 04:07:37;;;;;;;88.75;13.48;;;;;;;4.13;76.24;102224.72;10280398;28;20491;-63
2023/12/18 04:12:38;;;;;;;70.88;10.40;;;;;;;4.04;76.31;102228.75;10282491;28;20047;-64
2023/12/18 04:17:40;;;;;;;51.80;10.73;;;;;;;4.04;76.30;102233.22;10283766;28;20057;-64
2023/12/18 04:22:42;;;;;;;102.25;13.35;;;;;;;4.08;76.23;102227.63;10288931;28;20043;-63
2023/12/18 04:27:43;;;;;;;71.22;12.57;;;;;;;4.17;75.83;102227.09;10288879;28;20050;-64
2023/12/18 04:32:45;;;;;;;43.70;11.77;;;;;;;4.22;75.69;102220.66;10273257;28;20142;-64
2023/12/18 04:37:46;;;;;;;47.42;10.40;;;;;;;4.12;75.87;102197.22;10276212;28;20070;-64
2023/12/18 04:42:48;;;;;;;44.47;10.55;;;;;;;3.96;76.57;102197.25;10287648;28;20343;-65
2023/12/18 04:47:49;;;;;;;72.47;10.35;;;;;;;3.97;76.56;102193.66;10301487;28;20050;-63
2023/12/18 04:52:51;;;;;;;43.20;8.45;;;;;;;4.01;76.56;102197.00;10318189;28;20055;-63
2023/12/18 04:57:52;;;;;;;49.97;9.13;;;;;;;3.96;76.57;102207.03;10318712;28;20069;-64
2023/12/18 05:02:54;;;;;;;75.88;9.73;;;;;;;3.93;76.76;102220.50;10317314;28;20067;-63
2023/12/18 05:07:55;;;;;;;58.40;10.93;;;;;;;4.01;76.39;102215.63;10309379;28;20048;-63
2023/12/18 05:12:57;;;;;;;39.42;10.07;;;;;;;3.99;76.39;102198.91;10314826;28;20133;-63
2023/12/18 05:17:58;;;;;;;62.13;10.88;;;;;;;3.98;76.58;102208.66;10319737;28;20154;-63
2023/12/18 05:23:00;;;;;;;49.72;9.95;;;;;;;4.03;76.12;102203.09;10315844;28;20055;-64
2023/12/18 05:28:01;;;;;;;45.80;11.68;;;;;;;4.05;76.00;102203.88;10311487;28;20682;-64
2023/12/18 05:33:03;;;;;;;66.88;11.38;;;;;;;3.94;76.40;102203.59;10314983;28;20042;-64
2023/12/18 05:38:07;;;;;;;54.35;11.30;;;;;;;3.97;76.77;102203.44;10314782;28;20050;-64
2023/12/18 05:43:09;;;;;;;36.60;8.70;;;;;;;3.96;76.51;102188.41;10305832;28;20057;-64
2023/12/18 05:48:10;;;;;;;60.95;11.57;;;;;;;3.94;76.87;102198.28;10317983;28;20066;-64
2023/12/18 05:53:12;;;;;;;51.13;10.73;;;;;;;3.93;76.86;102191.25;10311334;28;20070;-64
2023/12/18 05:58:13;;;;;;;63.63;11.05;;;;;;;3.87;76.48;102199.56;10291030;28;20042;-63
2023/12/18 06:03:15;;;;;;;76.25;11.25;;;;;;;3.84;76.42;102197.94;10281872;28;20093;-62
2023/12/18 06:08:17;;;;;;;50.97;11.52;;;;;;;3.81;76.68;102210.56;10286196;28;20068;-63
2023/12/18 06:13:18;;;;;;;56.15;10.60;;;;;;;3.86;76.68;102216.50;10281395;28;20057;-63
2023/12/18 06:18:19;;;;;;;70.53;10.82;;;;;;;3.84;76.50;102213.91;10285259;28;20077;-64
2023/12/18 06:23:21;;;;;;;60.42;10.68;;;;;;;3.79;76.55;102184.03;10283664;28;20046;-63
2023/12/18 06:28:22;;;;;;;47.95;10.18;;;;;;;3.83;76.85;102192.72;10284539;28;20050;-63
2023/12/18 06:33:24;;;;;;;42.88;9.73;;;;;;;3.85;76.90;102206.78;10275973;28;20051;-63
2023/12/18 06:38:25;;;;;;;41.63;7.15;;;;;;;3.75;76.43;102204.66;10289717;28;20050;-63
2023/12/18 06:43:27;;;;;;;35.58;8.57;;;;;;;3.66;76.89;102215.78;10272876;28;20055;-63
2023/12/18 06:48:29;;;;;;;37.05;7.40;;;;;;;3.63;76.96;102226.59;10285833;28;20050;-63
2023/12/18 06:53:30;;;;;;;39.38;8.20;;;;;;;3.62;76.83;102221.38;10286504;28;20055;-63
2023/12/18 06:58:32;;;;;;;46.67;11.43;;;;;;;3.61;76.78;102209.84;10286738;28;20054;-63
2023/12/18 07:03:33;;;;;;;33.03;7.53;;;;;;;3.55;76.92;102210.19;10290674;28;20064;-63
2023/12/18 07:08:35;;;;;;;44.75;8.40;;;;;;;3.62;76.56;102205.44;10284090;28;20323;-63
2023/12/18 07:13:36;;;;;;;44.55;10.20;;;;;;;3.60;76.92;102212.63;10275051;28;20043;-63
2023/12/18 07:18:38;;;;;;;49.08;10.43;;;;;;;3.64;76.71;102220.34;10295456;28;20065;-64
2023/12/18 07:23:40;;;;;;;47.58;8.82;;;;;;;3.80;76.62;102222.16;10321682;28;20072;-63
2023/12/18 07:28:42;;;;;;;42.22;8.95;;;;;;;3.76;76.88;102222.31;10323764;28;20069;-62
2023/12/18 07:33:44;;;;;;;36.92;9.52;;;;;;;3.81;76.40;102231.84;10318101;28;20147;-61
2023/12/18 07:38:45;;;;;;;37.42;10.32;;;;;;;3.81;76.57;102231.84;10316426;28;20450;-61
2023/12/18 07:43:48;;;;;;;43.92;9.52;;;;;;;3.80;76.68;102225.66;10312553;28;20050;-65
2023/12/18 07:48:50;;;;;;;77.32;12.65;;;;;;;3.69;76.33;102217.41;10309218;28;20057;-64
2023/12/18 07:53:51;;;;;;;34.72;8.88;;;;;;;3.57;76.96;102221.63;10296157;28;20073;-60
2023/12/18 07:58:53;;;;;;;49.08;11.15;;;;;;;3.64;76.54;102220.34;10290089;28;20053;-64
2023/12/18 08:03:54;;;;;;;37.28;9.35;;;;;;;3.62;76.83;102221.38;10314898;28;20042;-61
2023/12/18 08:08:55;;;;;;;48.00;10.88;;;;;;;3.50;77.06;102226.41;10320015;28;20119;-64
2023/12/18 08:13:57;;;;;;;34.10;9.40;;;;;;;3.65;76.86;102231.81;10314387;28;20395;-63
2023/12/18 08:18:58;;;;;;;43.47;9.15;;;;;;;3.77;76.21;102215.19;10322680;28;20110;-64
2023/12/18 08:24:00;;;;;;;44.47;9.63;;;;;;;3.78;76.24;102212.44;10333784;28;20042;-64
2023/12/18 08:29:01;;;;;;;47.13;9.27;;;;;;;3.92;75.87;102218.81;10329215;28;20054;-64
2023/12/18 08:34:03;;;;;;;43.25;11.85;;;;;;;3.74;76.55;102204.72;10307630;28;20122;-64
2023/12/18 08:39:08;;;;;;;39.88;11.27;;;;;;;3.82;76.39;102209.63;10310094;28;20034;-61
2023/12/18 08:44:10;;;;;;;45.60;11.18;;;;;;;3.83;76.45;102203.34;10326413;28;20051;-64
2023/12/18 08:49:12;;;;;;;37.10;10.10;;;;;;;3.78;76.79;102192.97;10319095;28;20041;-64
2023/12/18 08:54:13;;;;;;;42.70;10.40;;;;;;;3.77;76.30;102191.25;10327731;28;20038;-65
2023/12/18 08:59:15;;;;;;;44.70;11.27;;;;;;;3.80;76.57;102192.91;10309438;28;20073;-61
2023/12/18 09:04:16;;;;;;;45.47;11.70;;;;;;;3.89;76.25;102193.25;10290743;28;20541;-61
2023/12/18 09:09:18;;;;;;;39.42;9.95;;;;;;;3.87;77.03;102197.78;10294574;28;20129;-62
2023/12/18 09:14:20;;;;;;;56.10;11.18;;;;;;;3.90;76.94;102212.72;10292967;28;20050;-65
2023/12/18 09:19:21;;;;;;;45.83;11.93;;;;;;;3.89;76.46;102208.31;10300995;28;20053;-61
2023/12/18 09:24:25;;;;;;;52.72;12.52;;;;;;;3.88;76.50;102207.47;10299374;28;20065;-61
2023/12/18 09:29:27;;;;;;;42.95;12.57;;;;;;;4.01;76.57;102212.97;10307362;28;20555;-61
2023/12/18 09:34:28;;;;;;;35.58;10.05;;;;;;;3.90;76.80;102204.72;10309989;28;20043;-66
2023/12/18 09:39:30;;;;;;;45.90;11.95;;;;;;;3.94;76.54;102196.47;10318097;28;20047;-63
2023/12/18 09:44:32;;;;;;;53.08;12.52;;;;;;;4.04;76.37;102203.94;10320567;28;20062;-64
2023/12/18 09:49:34;;;;;;;43.65;11.73;;;;;;;3.95;76.64;102202.69;10321158;28;20051;-63
2023/12/18 09:54:37;;;;;;;46.80;10.35;;;;;;;4.03;76.13;102199.56;10321380;28;20047;-62
2023/12/18 09:59:39;;;;;;;42.40;9.88;;;;;;;3.95;76.57;102203.53;10310679;28;20046;-64
2023/12/18 10:04:41;;;;;;;37.25;11.23;;;;;;;4.04;76.29;102202.13;10315717;28;20058;-64
2023/12/18 10:09:43;;;;;;;41.72;11.52;;;;;;;3.90;76.85;102199.41;10329332;28;20057;-63
2023/12/18 10:14:44;;;;;;;37.97;11.80;;;;;;;3.97;76.45;102198.13;10321300;28;20051;-63
2023/12/18 10:19:46;;;;;;;44.53;11.07;;;;;;;4.10;76.07;102193.78;10317452;28;20072;-63
2023/12/18 10:24:48;;;;;;;36.15;11.55;;;;;;;4.26;76.14;102179.59;10320020;28;20050;-64
2023/12/18 10:29:50;;;;;;;45.25;12.45;;;;;;;4.53;75.81;102171.81;10319319;28;20058;-63
2023/12/18 10:34:52;;;;;;;41.65;13.93;;;;;;;4.60;75.92;102170.50;10318460;28;20062;-63
2023/12/18 10:39:58;;;;;;;33.42;11.75;;;;;;;4.57;76.06;102155.53;10325160;28;20069;-63
2023/12/18 10:45:02;;;;;;;23.77;10.07;;;;;;;4.55;75.92;102148.59;10311306;28;20618;-66
2023/12/18 10:50:05;;;;;;;41.72;13.05;;;;;;;4.27;76.45;102144.06;10280568;28;20394;-65
2023/12/18 10:55:10;;;;;;;37.80;12.93;;;;;;;4.33;75.90;102138.38;10290828;28;20150;-64
2023/12/18 11:00:14;;;;;;;39.38;12.13;;;;;;;4.37;76.31;102142.56;10284734;28;20042;-66
2023/12/18 11:05:17;;;;;;;42.85;13.55;;;;;;;4.38;75.82;102138.94;10278775;28;20053;-66
2023/12/18 11:10:19;;;;;;;41.95;15.23;;;;;;;4.40;76.13;102136.19;10282218;28;20482;-65
2023/12/18 11:15:39;;;;;;;51.13;15.65;;;;;;;4.37;76.07;102123.94;10283479;28;20047;-65
2023/12/18 11:20:41;;;;;;;45.85;14.25;;;;;;;4.43;75.68;102131.56;10272371;28;20055;-64
2023/12/18 11:25:49;;;;;;;41.80;12.95;;;;;;;4.44;75.65;102117.28;10280760;28;20050;-64
2023/12/18 11:31:00;;;;;;;38.38;15.63;;;;;;;4.62;75.13;102112.66;10284947;28;20467;-64
2023/12/18 11:36:03;;;;;;;54.97;15.85;;;;;;;4.66;75.66;102113.31;10289601;28;20145;-65
2023/12/18 11:41:04;;;;;;;31.65;12.70;;;;;;;4.56;75.66;102102.34;10286680;28;20050;-65
2023/12/18 11:46:09;;;;;;;45.80;14.73;;;;;;;4.56;75.48;102089.91;10276131;28;20557;-65
2023/12/18 11:51:19;;;;;;;40.22;12.82;;;;;;;4.58;75.47;102084.47;10269394;28;20042;-63
2023/12/18 11:56:20;;;;;;;48.65;13.25;;;;;;;4.60;75.75;102079.94;10287500;28;20450;-64
2023/12/18 12:01:21;;;;;;;53.92;13.95;;;;;;;4.70;76.05;102077.53;10285742;28;20540;-64
2023/12/18 12:06:24;;;;;;;47.40;15.80;;;;;;;4.80;75.50;102062.72;10280744;28;20049;-67
2023/12/18 12:11:26;;;;;;;47.58;14.40;;;;;;;4.88;74.96;102059.56;10285475;28;20047;-67
2023/12/18 12:16:27;;;;;;;42.47;16.48;;;;;;;4.86;75.18;102056.13;10282109;28;20457;-66
2023/12/18 12:21:28;;;;;;;35.42;12.75;;;;;;;4.84;75.71;102029.59;10269409;28;20047;-68
2023/12/18 12:26:43;;;;;;;42.05;14.35;;;;;;;4.79;75.29;102038.84;10276953;28;20506;-67
2023/12/18 12:31:45;;;;;;;43.10;13.95;;;;;;;4.83;74.98;102027.88;10278406;28;20054;-67
2023/12/18 12:37:02;;;;;;;36.13;14.43;;;;;;;4.84;75.81;102018.06;10281296;28;20062;-67
2023/12/18 12:42:03;;;;;;;39.00;13.23;;;;;;;4.85;75.06;102012.66;10276813;28;20039;-65
2023/12/18 12:47:05;;;;;;;35.22;13.75;;;;;;;4.84;75.31;102007.41;10277929;28;20141;-66
2023/12/18 12:52:07;;;;;;;40.72;14.88;;;;;;;4.84;74.95;102005.63;10280053;28;20043;-66
2023/12/18 12:57:08;;;;;;;35.10;13.80;;;;;;;4.76;74.63;101992.78;10279953;28;21073;-66
2023/12/18 13:02:09;;;;;;;39.05;14.65;;;;;;;4.63;75.64;101981.19;10288664;28;20038;-67
2023/12/18 13:07:13;;;;;;;36.70;14.20;;;;;;;4.61;74.87;101967.13;10294262;28;20054;-66
2023/12/18 13:12:15;;;;;;;35.50;13.25;;;;;;;4.64;75.38;101974.06;10289968;28;20030;-67
2023/12/18 13:17:16;;;;;;;42.25;14.63;;;;;;;4.70;74.65;101977.19;10281983;28;20105;-67
2023/12/18 13:22:18;;;;;;;35.60;14.05;;;;;;;5.00;74.38;101975.34;10283582;28;20401;-65
2023/12/18 13:27:19;;;;;;;37.80;15.02;;;;;;;5.08;74.09;101965.88;10279722;28;20049;-67
2023/12/18 13:32:21;;;;;;;36.58;15.18;;;;;;;5.01;74.24;101980.53;10290583;28;20049;-67
2023/12/18 13:37:22;;;;;;;32.45;12.52;;;;;;;4.99;74.82;101971.78;10284900;28;20046;-68
2023/12/18 13:42:24;;;;;;;36.60;14.73;;;;;;;4.92;74.62;101973.16;10291626;28;20521;-67
2023/12/18 13:47:26;;;;;;;31.05;14.10;;;;;;;4.82;74.61;101972.03;10283520;28;20453;-67
2023/12/18 13:52:28;;;;;;;30.98;13.80;;;;;;;4.72;75.05;101958.44;10288670;28;20062;-68
2023/12/18 13:57:29;;;;;;;33.85;14.75;;;;;;;4.67;74.57;101950.75;10284670;28;20502;-67
2023/12/18 14:02:46;;;;;;;36.75;13.52;;;;;;;4.55;75.24;101946.22;10290334;28;20043;-68
2023/12/18 14:07:47;;;;;;;40.45;14.20;;;;;;;4.64;74.70;101945.63;10284411;28;20050;-67
2023/12/18 14:12:49;;;;;;;40.35;15.35;;;;;;;4.74;74.50;101943.25;10293933;28;20118;-68
2023/12/18 14:17:50;;;;;;;36.25;15.70;;;;;;;4.88;74.76;101937.88;10277176;28;20059;-68
2023/12/18 14:22:52;;;;;;;32.85;13.88;;;;;;;4.82;74.46;101943.59;10290953;28;20046;-68
2023/12/18 14:27:54;;;;;;;36.83;15.25;;;;;;;4.83;74.44;101945.28;10287883;28;20384;-64
2023/12/18 14:32:55;;;;;;;36.55;14.50;;;;;;;5.01;74.38;101942.38;10286860;28;20047;-65
2023/12/18 14:37:57;;;;;;;34.58;14.93;;;;;;;4.95;74.61;101948.97;10267770;28;20078;-66
2023/12/18 14:42:58;;;;;;;32.53;14.30;;;;;;;4.89;74.34;101955.53;10295987;28;20125;-66
2023/12/18 14:48:00;;;;;;;31.65;13.00;;;;;;;4.84;74.66;101951.47;10286256;28;20494;-66
2023/12/18 14:53:03;;;;;;;38.50;16.17;;;;;;;4.74;74.36;101940.56;10281136;28;20035;-64
2023/12/18 14:58:05;;;;;;;33.15;14.30;;;;;;;4.65;74.83;101944.66;10280474;28;20042;-63
2023/12/18 15:03:06;;;;;;;27.50;13.68;;;;;;;4.50;74.90;101942.97;10283564;28;20544;-65
2023/12/18 15:08:08;;;;;;;35.15;15.05;;;;;;;4.56;74.25;101927.47;10275578;28;20105;-64
2023/12/18 15:13:10;;;;;;;36.10;14.70;;;;;;;4.54;74.60;101925.84;10276948;28;21406;-64
2023/12/18 15:18:11;;;;;;;40.45;16.55;;;;;;;4.62;74.23;101928.03;10282881;28;20054;-64
2023/12/18 15:23:13;;;;;;;33.42;15.20;;;;;;;4.64;74.73;101918.13;10274634;28;20126;-65
2023/12/18 15:28:14;;;;;;;37.00;14.80;;;;;;;4.73;74.40;101914.88;10286283;28;20054;-65
2023/12/18 15:33:16;;;;;;;32.65;15.18;;;;;;;4.69;74.19;101900.03;10273420;28;20054;-65
2023/12/18 15:38:18;;;;;;;40.78;15.07;;;;;;;4.68;74.97;101895.66;10288381;28;20074;-64
2023/12/18 15:43:20;;;;;;;39.55;15.75;;;;;;;4.74;74.30;101900.63;10300517;28;20061;-64
2023/12/18 15:48:22;;;;;;;40.38;16.33;;;;;;;4.76;74.70;101915.53;10284970;28;20058;-60
2023/12/18 15:53:23;;;;;;;32.97;14.80;;;;;;;4.78;74.06;101907.44;10289416;28;20387;-59
2023/12/18 15:58:25;;;;;;;45.10;16.38;;;;;;;4.82;73.78;101905.41;10278598;28;20051;-60
2023/12/18 16:03:27;;;;;;;37.70;14.50;;;;;;;4.82;73.46;101916.06;10287340;28;20050;-61
2023/12/18 16:08:28;;;;;;;33.92;16.30;;;;;;;4.86;73.85;101904.25;10278722;28;20050;-60
2023/12/18 16:13:30;;;;;;;36.47;15.73;;;;;;;4.85;74.46;101894.56;10273426;28;20050;-62
2023/12/18 16:18:31;;;;;;;44.10;17.40;;;;;;;4.85;73.67;101895.41;10285048;28;20055;-60
2023/12/18 16:23:33;;;;;;;38.50;16.45;;;;;;;4.84;73.95;101899.06;10293982;28;20129;-61
2023/12/18 16:28:34;;;;;;;42.00;15.60;;;;;;;4.82;73.66;101884.97;10290448;28;20435;-59
2023/12/18 16:33:36;;;;;;;41.58;16.38;;;;;;;4.85;74.31;101890.09;10287916;28;20062;-59
2023/12/18 16:38:38;;;;;;;41.67;16.40;;;;;;;4.86;74.37;101869.63;10271773;28;20057;-60
2023/12/18 16:43:39;;;;;;;36.30;16.35;;;;;;;4.79;74.03;101879.84;10288596;28;20034;-61
2023/12/18 16:48:41;;;;;;;44.95;17.50;;;;;;;4.82;73.81;101868.13;10288685;28;20050;-63
2023/12/18 16:53:43;;;;;;;39.72;16.27;;;;;;;4.74;74.35;101860.66;10290586;28;20402;-62
2023/12/18 16:58:44;;;;;;;48.95;16.23;;;;;;;4.78;74.64;101872.81;10286027;28;20471;-60
2023/12/18 17:03:46;;;;;;;51.25;17.63;;;;;;;4.86;74.12;101862.50;10286395;28;20046;-60
2023/12/18 17:08:48;;;;;;;43.70;15.93;;;;;;;4.88;74.32;101875.75;10287173;28;20043;-61
2023/12/18 17:13:49;;;;;;;42.20;15.15;;;;;;;4.85;74.52;101858.13;10294468;28;20047;-62
2023/12/18 17:18:50;;;;;;;41.58;16.55;;;;;;;4.87;73.80;101858.88;10293708;28;20507;-63
2023/12/18 17:23:53;;;;;;;43.03;17.13;;;;;;;4.72;74.29;101863.41;10293689;28;20098;-64
2023/12/18 17:28:55;;;;;;;51.72;17.95;;;;;;;4.70;74.18;101843.16;10293606;28;20046;-59
2023/12/18 17:33:57;;;;;;;39.67;18.33;;;;;;;4.76;74.37;101848.09;10292437;28;20062;-62
2023/12/18 17:38:59;;;;;;;45.60;17.33;;;;;;;4.70;74.04;101840.47;10300374;28;20056;-60
2023/12/18 17:44:00;;;;;;;53.25;18.70;;;;;;;4.62;74.14;101857.00;10293092;28;20043;-60
2023/12/18 17:49:02;;;;;;;46.28;17.77;;;;;;;4.72;74.37;101847.44;10293554;28;20134;-61
2023/12/18 17:54:05;;;;;;;44.67;16.50;;;;;;;4.75;73.75;101841.03;10287989;28;20141;-61
2023/12/18 17:59:07;;;;;;;48.70;17.23;;;;;;;4.80;74.12;101822.09;10289650;28;20062;-60
2023/12/18 18:04:08;;;;;;;51.28;19.48;;;;;;;4.81;74.75;101829.13;10282531;28;20042;-62
2023/12/18 18:09:10;;;;;;;48.80;18.77;;;;;;;4.88;73.70;101817.13;10298203;28;20050;-60
2023/12/18 18:14:11;;;;;;;45.95;16.25;;;;;;;4.89;74.14;101811.66;10295863;28;20073;-65
2023/12/18 18:19:17;;;;;;;44.75;17.85;;;;;;;4.93;74.34;101810.50;10290054;28;20506;-65
2023/12/18 18:24:20;;;;;;;44.20;17.90;;;;;;;4.78;74.92;101811.56;10291584;28;20070;-62
2023/12/18 18:29:22;;;;;;;48.50;16.48;;;;;;;4.68;74.51;101799.78;10286957;28;20454;-66
2023/12/18 18:34:23;;;;;;;50.78;18.30;;;;;;;4.76;74.55;101801.00;10284721;28;20047;-64
2023/12/18 18:39:25;;;;;;;63.42;16.90;;;;;;;4.81;74.04;101794.50;10280304;28;20051;-64
2023/12/18 18:44:27;;;;;;;44.08;15.68;;;;;;;4.79;73.93;101807.91;10277380;28;20090;-62
2023/12/18 18:49:29;;;;;;;36.38;15.07;;;;;;;4.62;74.42;101826.81;10284020;28;20057;-63
2023/12/18 18:54:30;;;;;;;40.10;14.93;;;;;;;4.55;74.93;101811.25;10279441;28;20094;-64
2023/12/18 18:59:33;;;;;;;40.40;15.68;;;;;;;4.64;74.27;101796.50;10287964;28;20176;-65
2023/12/18 19:04:35;;;;;;;54.72;16.15;;;;;;;4.69;74.83;101780.19;10284203;28;20062;-65
2023/12/18 19:09:37;;;;;;;59.75;15.90;;;;;;;4.67;74.90;101766.97;10288340;28;20379;-65
2023/12/18 19:14:38;;;;;;;45.15;15.23;;;;;;;4.57;74.76;101771.22;10278523;28;20640;-62
2023/12/18 19:19:40;;;;;;;86.93;15.18;;;;;;;4.55;74.44;101765.97;10288642;28;20054;-64
2023/12/18 19:24:41;;;;;;;59.35;14.95;;;;;;;4.53;74.49;101778.53;10291203;28;20050;-63
2023/12/18 19:29:43;;;;;;;41.67;14.40;;;;;;;4.55;74.22;101773.13;10291810;28;20038;-66
2023/12/18 19:34:45;;;;;;;53.13;15.25;;;;;;;4.51;74.62;101798.25;10279810;28;20053;-62
2023/12/18 19:39:47;;;;;;;110.03;17.30;;;;;;;4.47;74.81;101794.94;10283027;28;20046;-61
2023/12/18 19:44:49;;;;;;;63.40;15.65;;;;;;;4.61;73.93;101817.97;10294137;28;20050;-61
2023/12/18 19:49:50;;;;;;;53.97;17.08;;;;;;;4.63;74.01;101809.91;10287367;28;20070;-62
2023/12/18 19:54:52;;;;;;;57.58;17.55;;;;;;;4.64;74.52;101816.91;10287348;28;20052;-61
2023/12/18 19:59:53;;;;;;;63.65;15.55;;;;;;;4.67;74.83;101819.41;10290998;28;20410;-62
2023/12/18 20:04:55;;;;;;;48.05;17.77;;;;;;;4.73;74.31;101811.00;10307814;28;20070;-62
2023/12/18 20:09:57;;;;;;;77.22;17.48;;;;;;;4.81;74.23;101807.81;10306838;28;20049;-63
2023/12/18 20:14:59;;;;;;;74.22;15.65;;;;;;;4.80;73.97;101783.00;10291908;28;20085;-62
2023/12/18 20:20:00;;;;;;;43.45;15.35;;;;;;;4.80;74.47;101775.00;10290316;28;20383;-63
2023/12/18 20:25:02;;;;;;;46.15;14.88;;;;;;;4.64;74.83;101753.00;10290959;28;20070;-62
2023/12/18 20:30:04;;;;;;;48.80;14.70;;;;;;;4.77;74.87;101751.22;10285801;28;20043;-63
2023/12/18 20:35:06;;;;;;;72.45;16.45;;;;;;;4.78;74.28;101750.28;10292256;28;20062;-62
2023/12/18 20:40:09;;;;;;;45.80;15.10;;;;;;;4.82;74.28;101741.13;10292107;28;20333;-62
2023/12/18 20:45:11;;;;;;;46.85;17.88;;;;;;;4.85;74.29;101719.59;10285535;28;20072;-62
2023/12/18 20:50:12;;;;;;;42.38;14.75;;;;;;;4.88;74.30;101727.38;10269918;28;20043;-62
2023/12/18 20:55:13;;;;;;;56.40;16.20;;;;;;;4.88;74.43;101715.88;10285438;28;20045;-62
2023/12/18 21:00:15;;;;;;;50.45;17.38;;;;;;;4.80;74.68;101697.75;10262667;28;20050;-62
2023/12/18 21:05:26;;;;;;;59.10;17.63;;;;;;;4.79;75.37;101704.03;10279111;28;20039;-61
2023/12/18 21:10:29;;;;;;;71.20;19.23;;;;;;;4.92;74.97;101710.22;10276380;28;20038;-63
2023/12/18 21:15:31;;;;;;;52.00;17.83;;;;;;;4.91;75.22;101692.53;10277516;28;20050;-62
2023/12/18 21:20:32;;;;;;;48.50;17.50;;;;;;;4.87;75.28;101703.50;10270518;28;20050;-61
2023/12/18 21:25:35;;;;;;;52.63;16.63;;;;;;;4.87;74.39;101695.50;10284138;28;20058;-61
2023/12/18 21:30:36;;;;;;;46.17;17.75;;;;;;;4.91;74.64;101681.00;10282725;28;20042;-62
2023/12/18 21:35:38;;;;;;;44.28;15.85;;;;;;;4.86;74.94;101677.81;10273265;28;20575;-64
2023/12/18 21:40:39;;;;;;;45.50;15.45;;;;;;;4.92;74.37;101666.75;10282802;28;20043;-63
2023/12/18 21:45:41;;;;;;;45.30;15.10;;;;;;;4.84;74.53;101667.28;10287770;28;20046;-61
2023/12/18 21:50:42;;;;;;;38.88;15.52;;;;;;;4.86;74.37;101673.34;10275368;28;20402;-62
2023/12/18 21:55:45;;;;;;;39.22;16.45;;;;;;;4.79;74.17;101676.53;10277001;28;20043;-64
2023/12/18 22:00:48;;;;;;;33.20;13.18;;;;;;;4.74;74.21;101693.69;10284616;28;20398;-64
2023/12/18 22:05:50;;;;;;;36.47;13.82;;;;;;;4.65;74.87;101674.81;10282133;28;20568;-63
2023/12/18 22:10:51;;;;;;;31.90;13.63;;;;;;;4.56;74.76;101682.50;10283449;28;20042;-64
2023/12/18 22:15:55;;;;;;;35.75;13.15;;;;;;;4.50;74.04;101661.59;10288787;28;20042;-65
2023/12/18 22:20:57;;;;;;;35.03;14.05;;;;;;;4.36;74.30;101643.91;10288970;23;20046;-63
2023/12/18 22:26:12;;;;;;;35.22;13.40;;;;;;;4.25;74.90;101646.44;10282785;28;20341;-64
2023/12/18 22:31:13;;;;;;;32.85;12.30;;;;;;;4.29;74.79;101647.09;10278908;28;20066;-64
2023/12/18 22:36:15;;;;;;;32.80;13.20;;;;;;;4.30;74.38;101649.63;10277018;28;20046;-64
2023/12/18 22:41:17;;;;;;;36.58;11.63;;;;;;;4.37;74.56;101655.41;10277534;28;20050;-62
2023/12/18 22:46:18;;;;;;;29.67;11.45;;;;;;;4.48;74.54;101654.66;10279512;28;20050;-64
2023/12/18 22:51:20;;;;;;;29.83;11.95;;;;;;;4.51;74.63;101652.66;10281150;28;20409;-64